Aérodrome :
LOGIN :

S'inscrire | Disclaimer

   EN    FR    IT 

 










Légende :    VFR   VFR Marginal   IFR   IFR Intensif   IFR Très Intensif
Visi : 
Plafond : 
>= 8 km
>= 3000ft
5 à 8 km
1000 à 3000 ft
1500m à 5 km
500 à 1000 ft
800 à 1500m
200 à 500 ft
< 800m
< 200 ft
Symboles :   Orages  Brouillard  Fortes neiges  Fortes précipitations  Vent > 20 kt
SIGMETs :   Divers  Orages  Givrage  Turbulence  Onde Orograph.  Cendres Volcan.







- Altitude de l'aérodrome : 296 ft
- Code IATA : GKE


ETNG - Geilenkirchen

DERNIER METAR :
  • 250550Z 35003KT 8000 -DZ FEW004 BKN008 BKN017 14/13 Q1024 BECMG NSW

METARs EXPIRÉS :
  • 250512Z 36006KT 9000 FEW004 SCT006 BKN011 13/13 Q1024 TEMPO 4000 BR BKN006
  • 250500Z 34005KT 4500 -DZ BR FEW004 BKN006 OVC010 13/13 Q1024 TEMPO 2500 BKN004
  • 250450Z 33005KT 3000 -DZ BR SCT004 BKN006 OVC010 14/13 Q1024
  • 250350Z 30004KT 3500 -DZ BR SCT004 BKN006 13/13 Q1023

TAF TAF ETNG
Valide du 25 à 06h jusqu'au 25 à 21h UTC


250500Z 2506/2521 35005KT 3000 BR -DZ BKN005
BECMG 2506/2508 6000 NSW BKN012
BECMG 2508/2510 9999 SCT025
Pas de NOTAMs connus pour ce terrain.



MET'MAP, la Météo Aéronautique d'un coup d'oeil ! - Copyright ORBIFLY Décembre 2007 - Disclaimer

ORBIFLY MET'MAP TEAM :

Programmation & Développement : Alexandra Zaïnal
Conception & Développement : Baudouin d'Aumeries
Co-Programmation & Développement : Marc-Olivier Méhu
Soutien technique & logistique : Manuel Goepfert

Contact : metmap@orbifly.com




SOURCES & CREDITS :

   NOAA